Lokaal brand risico:
CBI


Regionaal brand risico: Meer informatie


Weerstation
Sluispark-LeuvenLeuven-Sluispark



Het weer levert geen direct gevaar op.    Er zijn geen waarschuwingen afgegeven.

Nabijgelegen vliegvelden - METAR rapporten

   
EBBR - Wilsele bij Leuven
Gewijzigd: 18-10-2018 17:50
Grotendeels bewolkt    Wind: NO 18.5 km/h
Grotendeels bewolkt
Wind: Wind: NO 18.5 km/h
Temperatuur: 15°C
Dauwpunt: 10°C
Vochtigheid: 72%
Barometer: 1024 hPa
Bewolking: Grotendeels bewolkt
Zicht: meer dan 10 km
Bewolking: Licht bewolkt 731.5 m,
Grotendeels bewolkt 1097.3 m
EBBR 181550Z 04010KT 9999 FEW024 BKN036 15/10 Q1024 NOSIG
EBAW - Antwerp
Gewijzigd: 18-10-2018 17:50
Grotendeels bewolkt    Wind: NNO 13 km/h
Grotendeels bewolkt
Wind: Wind: NNO 13 km/h
Temperatuur: 15°C
Dauwpunt: 9°C
Vochtigheid: 68%
Barometer: 1024 hPa
Bewolking: Grotendeels bewolkt
Zicht: meer dan 10 km
Bewolking: Grotendeels bewolkt 1005.8 m
EBAW 181550Z 03007KT 9999 BKN033 15/09 Q1024 NOSIG
EBLG - Li├Ęge
Gewijzigd: 18-10-2018 17:50
Licht bewolkt    Wind: NNO 13 km/h
Licht bewolkt
Wind: Wind: NNO 13 km/h
Temperatuur: 15°C
Dauwpunt: 10°C
Vochtigheid: 72%
Barometer: 1023 hPa
Bewolking: Licht bewolkt
Zicht: meer dan 10 km
Bewolking: Licht bewolkt 731.5 m
EBLG 181550Z 03007KT 9999 FEW024 15/10 Q1023 NOSIG
EBCV - Mons/Bergen
Gewijzigd: 18-10-2018 17:55
Grotendeels bewolkt    Wind: NNO 16.7 km/h
Grotendeels bewolkt
Wind: Wind: NNO 16.7 km/h
Temperatuur: 15°C
Dauwpunt: 10°C
Vochtigheid: 72%
Barometer: 1023 hPa
Bewolking: Grotendeels bewolkt
Zicht: meer dan 10 km
Bewolking: Grotendeels bewolkt 1097.3 m
EBCV 181555Z AUTO 03009KT 9999 BKN036/// 15/10 Q1023 BLU
EHBK - Maastricht
Gewijzigd: 18-10-2018 17:55
Licht bewolkt    Wind: NNO 14.8 km/h
Licht bewolkt
Wind: Wind: NNO 14.8 km/h
Temperatuur: 15°C
Dauwpunt: 11°C
Vochtigheid: 77%
Barometer: 1023 hPa
Bewolking: Licht bewolkt
Zicht: meer dan 10 km
Bewolking: Licht bewolkt 1127.8 m
EHBK 181555Z AUTO 03008KT 360V060 9999 FEW037 15/11 Q1023 NOSIG
ELLX - Luxemburg
Gewijzigd: 18-10-2018 17:50
Nevel, Grotendeels bewolkt    Wind: NNO 27.8 km/h
Nevel, Grotendeels bewolkt
Wind: Wind: NNO 27.8 km/h
Temperatuur: 15°C
Dauwpunt: 11°C
Vochtigheid: 77%
Barometer: 1021 hPa
Bewolking: Grotendeels bewolkt
Zicht: 4 km
Bewolking: Grotendeels bewolkt 670.6 m
ELLX 181550Z 03015KT 4000 HZ BKN022 15/11 Q1021 NOSIG
EBOS - Oostende
Gewijzigd: 18-10-2018 17:50
Licht bewolkt    Wind: NO 25.9 km/h
Licht bewolkt
Wind: Wind: NO 25.9 km/h
Temperatuur: 14°C
Dauwpunt: 8°C
Vochtigheid: 67%
Barometer: 1025 hPa
Bewolking: Licht bewolkt
Zicht: meer dan 10 km
Bewolking: Licht bewolkt 1219.2 m
EBOS 181550Z 04014KT 9999 FEW040 14/08 Q1025 NOSIG
  

Script ontwikkeld door  Saratoga-weather.org Aangepast voor de template door  Weerstation Leuven

U vindt ons ook hier:

UK Metoffice

WeatherCloud

European Weather Network

Weather Underground

Benelux Weather Network

AWEKAS

WeatherlinkIP

Het Weer Aktueel

Apparatuur in gebruik:

Weer-station
Davis VP2 weatherstation

Weer-programma
Meteobridge

Weer-computer
D-Link DIR-505

Webleverancier
Robohost

Davis VP2 weatherstation

Meteobridge

D-Link DIR-505

Robohost